This is the latest recevied weather packets stored in our database for station/object ZL2IH. If no packets are shown the sender has not sent any weather packets the latest 10 day(s).
| Time | Temp. | Humidity | Pressure | Rain* | Wind** | Luminosity | Snow |
|---|---|---|---|---|---|---|---|
| 1777775417 | 16.11° C | 100% | 1034 hPa | 0 mm | - | - | - |
| 1777771217 | 15° C | 100% | 1034.4 hPa | 0 mm | - | - | - |
| 1777759257 | 11.11° C | 100% | 1035.9 hPa | 0 mm | - | - | - |
| 1777752618 | 8.33° C | 100% | 1035.4 hPa | 0 mm | - | - | - |
| 1777752018 | 8.33° C | 100% | 1035.3 hPa | 0 mm | - | - | - |
| 1777747219 | 7.22° C | 100% | 1034.9 hPa | 0 mm | - | - | - |
| 1777745418 | 7.22° C | 100% | 1035 hPa | 0 mm | - | - | - |
| 1777742438 | 7.78° C | 100% | 1034.9 hPa | 0 mm | - | - | - |
| 1777741218 | 8.33° C | 100% | 1035 hPa | 0 mm | - | - | - |
| 1777737618 | 8.33° C | 100% | 1035.2 hPa | 0 mm | - | - | - |
| 1777735858 | 8.33° C | 100% | 1035.2 hPa | 0 mm | - | - | - |
| 1777735218 | 8.33° C | 100% | 1035.2 hPa | 0 mm | - | - | - |
| 1777734618 | 8.33° C | 100% | 1035.2 hPa | 0 mm | - | - | - |
| 1777732818 | 7.78° C | 100% | 1035.4 hPa | 0 mm | - | - | - |
| 1777728618 | 7.78° C | 100% | 1035.2 hPa | 0 mm | - | - | - |
| 1777727417 | 7.78° C | 100% | 1035.1 hPa | 0 mm | - | - | - |
| 1777720218 | 7.78° C | 100% | 1034.7 hPa | 0 mm | - | - | - |
| 1777719617 | 7.78° C | 100% | 1034.7 hPa | 0 mm | - | - | - |
| 1777705817 | 10.56° C | 100% | 1033.6 hPa | 0 mm | - | - | - |
| 1777705257 | 10.56° C | 100% | 1033.6 hPa | 0 mm | - | - | - |
| 1777698617 | 13.33° C | 100% | 1033 hPa | 0 mm | - | - | - |
| 1777695617 | 15° C | 100% | 1033.1 hPa | 0 mm | - | - | - |
| 1777695037 | 15° C | 100% | 1033.1 hPa | 0 mm | - | - | - |
| 1777692017 | 15.56° C | 100% | 1033.7 hPa | 0 mm | - | - | - |
| 1777685417 | 16.11° C | 100% | 1034.6 hPa | 0 mm | - | - | - |
* Rain latest hour (hover to see other rain measurements)
** Current wind speed in m/s (hover to see current wind gust speed)